sensor_id;sensor_type;location;lat;lon;timestamp;temperature;humidity
2889;DHT22;1453;42.708;23.282;2024-03-06T00:01:06;5.20;99.90
2889;DHT22;1453;42.708;23.282;2024-03-06T00:03:32;5.30;99.90
2889;DHT22;1453;42.708;23.282;2024-03-06T00:05:58;5.30;99.90
2889;DHT22;1453;42.708;23.282;2024-03-06T00:08:24;5.40;99.90
2889;DHT22;1453;42.708;23.282;2024-03-06T00:10:50;5.10;99.90
2889;DHT22;1453;42.708;23.282;2024-03-06T00:13:16;4.90;99.90
2889;DHT22;1453;42.708;23.282;2024-03-06T00:15:42;5.00;99.90
2889;DHT22;1453;42.708;23.282;2024-03-06T00:18:08;5.00;99.90
2889;DHT22;1453;42.708;23.282;2024-03-06T00:20:33;5.20;99.90
2889;DHT22;1453;42.708;23.282;2024-03-06T00:22:59;5.50;99.90
2889;DHT22;1453;42.708;23.282;2024-03-06T00:25:25;5.40;99.90
2889;DHT22;1453;42.708;23.282;2024-03-06T00:27:52;5.00;99.90
2889;DHT22;1453;42.708;23.282;2024-03-06T00:30:20;4.60;99.90
2889;DHT22;1453;42.708;23.282;2024-03-06T00:32:46;4.60;99.90
2889;DHT22;1453;42.708;23.282;2024-03-06T00:35:11;4.50;99.90
2889;DHT22;1453;42.708;23.282;2024-03-06T00:37:37;4.40;99.90
2889;DHT22;1453;42.708;23.282;2024-03-06T00:40:04;4.50;99.90
2889;DHT22;1453;42.708;23.282;2024-03-06T00:42:31;4.70;99.90
2889;DHT22;1453;42.708;23.282;2024-03-06T00:44:57;4.70;99.90
2889;DHT22;1453;42.708;23.282;2024-03-06T00:47:23;4.60;99.90
2889;DHT22;1453;42.708;23.282;2024-03-06T00:49:49;4.50;99.90
2889;DHT22;1453;42.708;23.282;2024-03-06T00:52:15;4.50;99.90
2889;DHT22;1453;42.708;23.282;2024-03-06T00:54:40;4.70;99.90
2889;DHT22;1453;42.708;23.282;2024-03-06T00:57:07;4.50;99.90
2889;DHT22;1453;42.708;23.282;2024-03-06T00:59:32;4.30;99.90
2889;DHT22;1453;42.708;23.282;2024-03-06T01:01:58;4.40;99.90
2889;DHT22;1453;42.708;23.282;2024-03-06T01:04:24;4.40;99.90
2889;DHT22;1453;42.708;23.282;2024-03-06T01:06:50;4.00;99.90
2889;DHT22;1453;42.708;23.282;2024-03-06T01:09:17;4.00;99.90
2889;DHT22;1453;42.708;23.282;2024-03-06T01:11:43;3.90;99.90
2889;DHT22;1453;42.708;23.282;2024-03-06T01:14:09;4.10;99.90
2889;DHT22;1453;42.708;23.282;2024-03-06T01:16:36;4.20;99.90
2889;DHT22;1453;42.708;23.282;2024-03-06T01:19:02;4.10;99.90
2889;DHT22;1453;42.708;23.282;2024-03-06T01:21:28;4.20;99.90
2889;DHT22;1453;42.708;23.282;2024-03-06T01:23:57;4.30;99.90
2889;DHT22;1453;42.708;23.282;2024-03-06T01:26:23;4.40;99.90
2889;DHT22;1453;42.708;23.282;2024-03-06T01:28:49;4.50;99.90
2889;DHT22;1453;42.708;23.282;2024-03-06T01:31:15;4.50;99.90
2889;DHT22;1453;42.708;23.282;2024-03-06T01:33:41;4.80;99.90
2889;DHT22;1453;42.708;23.282;2024-03-06T01:36:07;4.90;99.90
2889;DHT22;1453;42.708;23.282;2024-03-06T01:38:33;5.00;99.90
2889;DHT22;1453;42.708;23.282;2024-03-06T01:40:58;5.00;99.90
2889;DHT22;1453;42.708;23.282;2024-03-06T01:43:27;5.00;99.90
2889;DHT22;1453;42.708;23.282;2024-03-06T01:45:53;5.30;99.90
2889;DHT22;1453;42.708;23.282;2024-03-06T01:48:27;5.30;99.90
2889;DHT22;1453;42.708;23.282;2024-03-06T01:50:56;5.30;99.90
2889;DHT22;1453;42.708;23.282;2024-03-06T01:53:24;5.30;99.90
2889;DHT22;1453;42.708;23.282;2024-03-06T01:55:52;5.40;99.90
2889;DHT22;1453;42.708;23.282;2024-03-06T01:58:19;5.40;99.90
2889;DHT22;1453;42.708;23.282;2024-03-06T02:00:47;5.40;99.90
2889;DHT22;1453;42.708;23.282;2024-03-06T02:03:14;5.50;99.90
2889;DHT22;1453;42.708;23.282;2024-03-06T02:05:41;5.30;99.90
2889;DHT22;1453;42.708;23.282;2024-03-06T02:08:07;5.30;99.90
2889;DHT22;1453;42.708;23.282;2024-03-06T02:10:33;5.10;99.90
2889;DHT22;1453;42.708;23.282;2024-03-06T02:13:00;5.10;99.90
2889;DHT22;1453;42.708;23.282;2024-03-06T02:15:26;5.30;99.90
2889;DHT22;1453;42.708;23.282;2024-03-06T02:17:52;5.10;99.90
2889;DHT22;1453;42.708;23.282;2024-03-06T02:20:25;5.00;99.90
2889;DHT22;1453;42.708;23.282;2024-03-06T02:22:51;5.00;99.90
2889;DHT22;1453;42.708;23.282;2024-03-06T02:25:17;5.00;99.90
2889;DHT22;1453;42.708;23.282;2024-03-06T02:27:44;4.70;99.90
2889;DHT22;1453;42.708;23.282;2024-03-06T02:30:11;4.60;99.90
2889;DHT22;1453;42.708;23.282;2024-03-06T02:32:37;4.70;99.90
2889;DHT22;1453;42.708;23.282;2024-03-06T02:35:03;4.60;99.90
2889;DHT22;1453;42.708;23.282;2024-03-06T02:37:34;4.50;99.90
2889;DHT22;1453;42.708;23.282;2024-03-06T02:40:00;4.40;99.90
2889;DHT22;1453;42.708;23.282;2024-03-06T02:42:27;4.40;99.90
2889;DHT22;1453;42.708;23.282;2024-03-06T02:44:54;4.50;99.90
2889;DHT22;1453;42.708;23.282;2024-03-06T02:47:20;4.50;99.90
2889;DHT22;1453;42.708;23.282;2024-03-06T02:49:46;4.40;99.90
2889;DHT22;1453;42.708;23.282;2024-03-06T02:52:12;4.10;99.90
2889;DHT22;1453;42.708;23.282;2024-03-06T02:54:37;4.00;99.90
2889;DHT22;1453;42.708;23.282;2024-03-06T02:57:06;4.00;99.90
2889;DHT22;1453;42.708;23.282;2024-03-06T02:59:32;4.00;99.90
2889;DHT22;1453;42.708;23.282;2024-03-06T03:01:58;4.20;99.90
2889;DHT22;1453;42.708;23.282;2024-03-06T03:04:28;4.20;99.90
2889;DHT22;1453;42.708;23.282;2024-03-06T03:07:07;4.30;99.90
2889;DHT22;1453;42.708;23.282;2024-03-06T03:09:32;4.30;99.90
2889;DHT22;1453;42.708;23.282;2024-03-06T03:11:58;4.30;99.90
2889;DHT22;1453;42.708;23.282;2024-03-06T03:14:24;4.20;99.90
2889;DHT22;1453;42.708;23.282;2024-03-06T03:16:50;4.20;99.90
2889;DHT22;1453;42.708;23.282;2024-03-06T03:19:16;4.20;99.90
2889;DHT22;1453;42.708;23.282;2024-03-06T03:21:45;4.20;99.90
2889;DHT22;1453;42.708;23.282;2024-03-06T03:24:10;4.00;99.90
2889;DHT22;1453;42.708;23.282;2024-03-06T03:26:36;4.00;99.90
2889;DHT22;1453;42.708;23.282;2024-03-06T03:29:02;4.00;99.90
2889;DHT22;1453;42.708;23.282;2024-03-06T03:31:29;4.10;99.90
2889;DHT22;1453;42.708;23.282;2024-03-06T03:33:54;3.90;99.90
2889;DHT22;1453;42.708;23.282;2024-03-06T03:36:20;3.90;99.90
2889;DHT22;1453;42.708;23.282;2024-03-06T03:38:46;4.00;99.90
2889;DHT22;1453;42.708;23.282;2024-03-06T03:41:13;3.80;99.90
2889;DHT22;1453;42.708;23.282;2024-03-06T03:43:42;3.90;99.90
2889;DHT22;1453;42.708;23.282;2024-03-06T03:46:08;3.90;99.90
2889;DHT22;1453;42.708;23.282;2024-03-06T03:48:35;3.80;99.90
2889;DHT22;1453;42.708;23.282;2024-03-06T03:51:05;3.90;99.90
2889;DHT22;1453;42.708;23.282;2024-03-06T03:53:35;4.00;99.90
2889;DHT22;1453;42.708;23.282;2024-03-06T03:56:01;4.00;99.90
2889;DHT22;1453;42.708;23.282;2024-03-06T03:58:28;4.10;99.90
2889;DHT22;1453;42.708;23.282;2024-03-06T04:00:55;4.00;99.90
2889;DHT22;1453;42.708;23.282;2024-03-06T04:03:22;3.90;99.90
2889;DHT22;1453;42.708;23.282;2024-03-06T04:05:51;4.00;99.90
2889;DHT22;1453;42.708;23.282;2024-03-06T04:08:17;4.00;99.90
2889;DHT22;1453;42.708;23.282;2024-03-06T04:10:44;3.70;99.90
2889;DHT22;1453;42.708;23.282;2024-03-06T04:13:14;3.70;99.90
2889;DHT22;1453;42.708;23.282;2024-03-06T04:15:41;3.80;99.90
2889;DHT22;1453;42.708;23.282;2024-03-06T04:18:07;3.80;99.90
2889;DHT22;1453;42.708;23.282;2024-03-06T04:20:33;3.90;99.90
2889;DHT22;1453;42.708;23.282;2024-03-06T04:22:59;3.90;99.90
2889;DHT22;1453;42.708;23.282;2024-03-06T04:25:26;3.70;99.90
2889;DHT22;1453;42.708;23.282;2024-03-06T04:27:52;3.50;99.90
2889;DHT22;1453;42.708;23.282;2024-03-06T04:30:18;3.50;99.90
2889;DHT22;1453;42.708;23.282;2024-03-06T04:32:44;3.50;99.90
2889;DHT22;1453;42.708;23.282;2024-03-06T04:35:10;3.50;99.90
2889;DHT22;1453;42.708;23.282;2024-03-06T04:37:36;3.70;99.90
2889;DHT22;1453;42.708;23.282;2024-03-06T04:40:03;3.80;99.90
2889;DHT22;1453;42.708;23.282;2024-03-06T04:42:34;3.90;99.90
2889;DHT22;1453;42.708;23.282;2024-03-06T04:45:09;3.90;99.90
2889;DHT22;1453;42.708;23.282;2024-03-06T04:47:36;3.80;99.90
2889;DHT22;1453;42.708;23.282;2024-03-06T04:50:02;3.60;99.90
2889;DHT22;1453;42.708;23.282;2024-03-06T04:52:28;3.50;99.90
2889;DHT22;1453;42.708;23.282;2024-03-06T04:54:54;3.50;99.90
2889;DHT22;1453;42.708;23.282;2024-03-06T04:57:20;3.60;99.90
2889;DHT22;1453;42.708;23.282;2024-03-06T04:59:46;3.80;99.90
2889;DHT22;1453;42.708;23.282;2024-03-06T05:02:12;3.90;99.90
2889;DHT22;1453;42.708;23.282;2024-03-06T05:04:37;4.00;99.90
2889;DHT22;1453;42.708;23.282;2024-03-06T05:07:03;3.90;99.90
2889;DHT22;1453;42.708;23.282;2024-03-06T05:09:30;3.80;99.90
2889;DHT22;1453;42.708;23.282;2024-03-06T05:11:56;3.90;99.90
2889;DHT22;1453;42.708;23.282;2024-03-06T05:14:22;3.90;99.90
2889;DHT22;1453;42.708;23.282;2024-03-06T05:16:48;4.10;99.90
2889;DHT22;1453;42.708;23.282;2024-03-06T05:19:14;4.10;99.90
2889;DHT22;1453;42.708;23.282;2024-03-06T05:21:40;4.20;99.90
2889;DHT22;1453;42.708;23.282;2024-03-06T05:24:05;4.20;99.90
2889;DHT22;1453;42.708;23.282;2024-03-06T05:26:31;4.20;99.90
2889;DHT22;1453;42.708;23.282;2024-03-06T05:28:58;4.40;99.90
2889;DHT22;1453;42.708;23.282;2024-03-06T05:31:24;4.50;99.90
2889;DHT22;1453;42.708;23.282;2024-03-06T05:33:50;4.70;99.90
2889;DHT22;1453;42.708;23.282;2024-03-06T05:36:16;4.40;99.90
2889;DHT22;1453;42.708;23.282;2024-03-06T05:38:43;4.30;99.90
2889;DHT22;1453;42.708;23.282;2024-03-06T05:41:10;4.40;99.90
2889;DHT22;1453;42.708;23.282;2024-03-06T05:43:36;4.60;99.90
2889;DHT22;1453;42.708;23.282;2024-03-06T05:46:02;4.80;99.90
2889;DHT22;1453;42.708;23.282;2024-03-06T05:48:28;4.50;99.90
2889;DHT22;1453;42.708;23.282;2024-03-06T05:50:54;4.20;99.90
2889;DHT22;1453;42.708;23.282;2024-03-06T05:53:20;4.30;99.90
2889;DHT22;1453;42.708;23.282;2024-03-06T05:55:46;4.60;99.90
2889;DHT22;1453;42.708;23.282;2024-03-06T05:58:12;4.90;99.90
2889;DHT22;1453;42.708;23.282;2024-03-06T06:00:38;4.90;99.90
2889;DHT22;1453;42.708;23.282;2024-03-06T06:03:04;4.90;99.90
2889;DHT22;1453;42.708;23.282;2024-03-06T06:05:30;5.10;99.90
2889;DHT22;1453;42.708;23.282;2024-03-06T06:07:56;5.10;99.90
2889;DHT22;1453;42.708;23.282;2024-03-06T06:10:22;5.20;99.90
2889;DHT22;1453;42.708;23.282;2024-03-06T06:12:49;5.30;99.90
2889;DHT22;1453;42.708;23.282;2024-03-06T06:15:15;5.40;99.90
2889;DHT22;1453;42.708;23.282;2024-03-06T06:17:41;5.50;99.90
2889;DHT22;1453;42.708;23.282;2024-03-06T06:20:09;5.50;99.90
2889;DHT22;1453;42.708;23.282;2024-03-06T06:22:40;5.60;99.90
2889;DHT22;1453;42.708;23.282;2024-03-06T06:25:09;5.80;99.90
2889;DHT22;1453;42.708;23.282;2024-03-06T06:27:35;5.90;99.90
2889;DHT22;1453;42.708;23.282;2024-03-06T06:30:01;6.20;99.90
2889;DHT22;1453;42.708;23.282;2024-03-06T06:32:28;6.30;99.90
2889;DHT22;1453;42.708;23.282;2024-03-06T06:34:54;6.50;99.90
2889;DHT22;1453;42.708;23.282;2024-03-06T06:37:19;6.50;99.90
2889;DHT22;1453;42.708;23.282;2024-03-06T06:39:45;6.70;99.90
2889;DHT22;1453;42.708;23.282;2024-03-06T06:42:11;6.80;99.90
2889;DHT22;1453;42.708;23.282;2024-03-06T06:44:37;7.00;99.90
2889;DHT22;1453;42.708;23.282;2024-03-06T06:47:03;7.30;99.90
2889;DHT22;1453;42.708;23.282;2024-03-06T06:49:29;7.80;99.90
2889;DHT22;1453;42.708;23.282;2024-03-06T06:51:55;8.00;99.90
2889;DHT22;1453;42.708;23.282;2024-03-06T06:54:21;8.20;99.90
2889;DHT22;1453;42.708;23.282;2024-03-06T06:56:47;8.50;99.90
2889;DHT22;1453;42.708;23.282;2024-03-06T06:59:13;8.80;99.90
2889;DHT22;1453;42.708;23.282;2024-03-06T07:01:39;9.10;99.90
2889;DHT22;1453;42.708;23.282;2024-03-06T07:04:06;9.70;99.90
2889;DHT22;1453;42.708;23.282;2024-03-06T07:06:32;9.80;99.90
2889;DHT22;1453;42.708;23.282;2024-03-06T07:08:58;10.30;99.90
2889;DHT22;1453;42.708;23.282;2024-03-06T07:11:24;10.40;99.90
2889;DHT22;1453;42.708;23.282;2024-03-06T07:13:50;10.80;99.90
2889;DHT22;1453;42.708;23.282;2024-03-06T07:16:16;10.90;99.90
2889;DHT22;1453;42.708;23.282;2024-03-06T07:18:42;11.10;99.90
2889;DHT22;1453;42.708;23.282;2024-03-06T07:21:08;11.40;99.90
2889;DHT22;1453;42.708;23.282;2024-03-06T07:23:34;11.50;99.90
2889;DHT22;1453;42.708;23.282;2024-03-06T07:26:00;11.50;99.90
2889;DHT22;1453;42.708;23.282;2024-03-06T07:28:27;11.30;99.90
2889;DHT22;1453;42.708;23.282;2024-03-06T07:30:53;11.20;99.90
2889;DHT22;1453;42.708;23.282;2024-03-06T07:33:19;11.40;99.90
2889;DHT22;1453;42.708;23.282;2024-03-06T07:35:44;11.40;99.90
2889;DHT22;1453;42.708;23.282;2024-03-06T07:38:10;11.90;99.90
2889;DHT22;1453;42.708;23.282;2024-03-06T07:40:36;11.90;99.90
2889;DHT22;1453;42.708;23.282;2024-03-06T07:43:02;12.30;99.90
2889;DHT22;1453;42.708;23.282;2024-03-06T07:45:29;12.60;99.90
2889;DHT22;1453;42.708;23.282;2024-03-06T07:47:55;12.30;99.90
2889;DHT22;1453;42.708;23.282;2024-03-06T07:50:21;11.40;99.90
2889;DHT22;1453;42.708;23.282;2024-03-06T07:52:47;11.20;99.90
2889;DHT22;1453;42.708;23.282;2024-03-06T07:55:13;12.10;99.90
2889;DHT22;1453;42.708;23.282;2024-03-06T07:57:39;13.70;99.90
2889;DHT22;1453;42.708;23.282;2024-03-06T08:00:06;14.40;95.60
2889;DHT22;1453;42.708;23.282;2024-03-06T08:02:45;14.30;94.10
2889;DHT22;1453;42.708;23.282;2024-03-06T08:05:16;14.20;91.80
2889;DHT22;1453;42.708;23.282;2024-03-06T08:07:42;14.10;92.20
2889;DHT22;1453;42.708;23.282;2024-03-06T08:10:12;14.30;92.30
2889;DHT22;1453;42.708;23.282;2024-03-06T08:12:42;14.30;90.40
2889;DHT22;1453;42.708;23.282;2024-03-06T08:15:10;13.80;92.90
2889;DHT22;1453;42.708;23.282;2024-03-06T08:17:43;14.40;92.00
2889;DHT22;1453;42.708;23.282;2024-03-06T08:20:10;13.30;93.40
2889;DHT22;1453;42.708;23.282;2024-03-06T08:22:38;12.30;96.30
2889;DHT22;1453;42.708;23.282;2024-03-06T08:25:09;12.30;99.90
2889;DHT22;1453;42.708;23.282;2024-03-06T08:27:39;13.20;99.10
2889;DHT22;1453;42.708;23.282;2024-03-06T08:30:07;13.50;96.20
2889;DHT22;1453;42.708;23.282;2024-03-06T08:32:34;14.80;93.40
2889;DHT22;1453;42.708;23.282;2024-03-06T08:35:02;15.00;91.30
2889;DHT22;1453;42.708;23.282;2024-03-06T08:37:32;15.40;88.40
2889;DHT22;1453;42.708;23.282;2024-03-06T08:39:59;14.80;88.80
2889;DHT22;1453;42.708;23.282;2024-03-06T08:42:27;15.50;90.20
2889;DHT22;1453;42.708;23.282;2024-03-06T08:44:53;16.40;84.40
2889;DHT22;1453;42.708;23.282;2024-03-06T08:47:19;16.70;82.80
2889;DHT22;1453;42.708;23.282;2024-03-06T08:49:45;18.10;78.10
2889;DHT22;1453;42.708;23.282;2024-03-06T08:52:12;16.20;77.10
2889;DHT22;1453;42.708;23.282;2024-03-06T08:54:40;16.30;82.70
2889;DHT22;1453;42.708;23.282;2024-03-06T08:57:07;17.10;77.20
2889;DHT22;1453;42.708;23.282;2024-03-06T08:59:34;17.50;77.20
2889;DHT22;1453;42.708;23.282;2024-03-06T09:02:13;17.50;75.70
2889;DHT22;1453;42.708;23.282;2024-03-06T09:04:44;17.90;73.60
2889;DHT22;1453;42.708;23.282;2024-03-06T09:07:10;18.20;74.10
2889;DHT22;1453;42.708;23.282;2024-03-06T09:09:37;18.30;72.00
2889;DHT22;1453;42.708;23.282;2024-03-06T09:12:07;18.20;72.10
2889;DHT22;1453;42.708;23.282;2024-03-06T09:14:38;17.60;73.80
2889;DHT22;1453;42.708;23.282;2024-03-06T09:17:04;18.00;73.50
2889;DHT22;1453;42.708;23.282;2024-03-06T09:19:31;18.60;70.70
2889;DHT22;1453;42.708;23.282;2024-03-06T09:21:58;19.10;69.60
2889;DHT22;1453;42.708;23.282;2024-03-06T09:24:25;19.60;68.70
2889;DHT22;1453;42.708;23.282;2024-03-06T09:26:52;18.90;67.50
2889;DHT22;1453;42.708;23.282;2024-03-06T09:29:18;18.40;68.40
2889;DHT22;1453;42.708;23.282;2024-03-06T09:31:45;18.00;69.00
2889;DHT22;1453;42.708;23.282;2024-03-06T09:34:11;18.40;68.70
2889;DHT22;1453;42.708;23.282;2024-03-06T09:36:45;18.70;68.20
2889;DHT22;1453;42.708;23.282;2024-03-06T09:39:15;18.40;67.80
2889;DHT22;1453;42.708;23.282;2024-03-06T09:41:44;17.50;68.10
2889;DHT22;1453;42.708;23.282;2024-03-06T09:44:10;17.60;69.40
2889;DHT22;1453;42.708;23.282;2024-03-06T09:46:36;17.70;68.10
2889;DHT22;1453;42.708;23.282;2024-03-06T09:49:02;18.00;68.20
2889;DHT22;1453;42.708;23.282;2024-03-06T09:51:28;18.10;69.30
2889;DHT22;1453;42.708;23.282;2024-03-06T09:53:56;18.10;65.90
2889;DHT22;1453;42.708;23.282;2024-03-06T09:56:22;16.90;66.30
2889;DHT22;1453;42.708;23.282;2024-03-06T09:58:48;15.90;70.00
2889;DHT22;1453;42.708;23.282;2024-03-06T10:01:14;17.00;70.10
2889;DHT22;1453;42.708;23.282;2024-03-06T10:03:40;18.50;65.80
2889;DHT22;1453;42.708;23.282;2024-03-06T10:06:07;19.70;64.80
2889;DHT22;1453;42.708;23.282;2024-03-06T10:08:34;20.70;62.50
2889;DHT22;1453;42.708;23.282;2024-03-06T10:11:00;19.80;61.30
2889;DHT22;1453;42.708;23.282;2024-03-06T10:13:26;19.50;61.60
2889;DHT22;1453;42.708;23.282;2024-03-06T10:15:57;20.10;61.80
2889;DHT22;1453;42.708;23.282;2024-03-06T10:18:27;21.00;61.80
2889;DHT22;1453;42.708;23.282;2024-03-06T10:20:54;21.40;59.50
2889;DHT22;1453;42.708;23.282;2024-03-06T10:23:20;21.70;58.60
2889;DHT22;1453;42.708;23.282;2024-03-06T10:25:47;21.60;58.60
2889;DHT22;1453;42.708;23.282;2024-03-06T10:28:21;21.20;57.50
2889;DHT22;1453;42.708;23.282;2024-03-06T10:30:49;21.50;57.60
2889;DHT22;1453;42.708;23.282;2024-03-06T10:33:18;22.30;56.50
2889;DHT22;1453;42.708;23.282;2024-03-06T10:35:46;22.00;55.50
2889;DHT22;1453;42.708;23.282;2024-03-06T10:38:13;21.90;55.60
2889;DHT22;1453;42.708;23.282;2024-03-06T10:40:43;22.00;55.40
2889;DHT22;1453;42.708;23.282;2024-03-06T10:43:10;21.80;55.30
2889;DHT22;1453;42.708;23.282;2024-03-06T10:48:07;20.30;55.80
2889;DHT22;1453;42.708;23.282;2024-03-06T10:50:35;20.60;56.40
2889;DHT22;1453;42.708;23.282;2024-03-06T10:53:05;20.80;55.60
2889;DHT22;1453;42.708;23.282;2024-03-06T10:55:36;21.20;56.10
2889;DHT22;1453;42.708;23.282;2024-03-06T10:58:06;21.20;55.80
2889;DHT22;1453;42.708;23.282;2024-03-06T11:00:41;21.60;56.60
2889;DHT22;1453;42.708;23.282;2024-03-06T11:03:11;20.60;55.30
2889;DHT22;1453;42.708;23.282;2024-03-06T11:05:39;20.40;56.60
2889;DHT22;1453;42.708;23.282;2024-03-06T11:08:10;21.50;55.10
2889;DHT22;1453;42.708;23.282;2024-03-06T11:10:38;21.50;55.40
2889;DHT22;1453;42.708;23.282;2024-03-06T11:13:21;23.00;53.70
2889;DHT22;1453;42.708;23.282;2024-03-06T11:15:52;22.40;51.90
2889;DHT22;1453;42.708;23.282;2024-03-06T11:23:29;23.00;51.90
2889;DHT22;1453;42.708;23.282;2024-03-06T11:26:06;23.10;52.60
2889;DHT22;1453;42.708;23.282;2024-03-06T11:28:38;24.10;51.10
2889;DHT22;1453;42.708;23.282;2024-03-06T11:31:07;23.90;50.40
2889;DHT22;1453;42.708;23.282;2024-03-06T11:33:42;24.40;50.30
2889;DHT22;1453;42.708;23.282;2024-03-06T11:36:25;24.40;50.60
2889;DHT22;1453;42.708;23.282;2024-03-06T11:39:02;24.10;50.40
2889;DHT22;1453;42.708;23.282;2024-03-06T11:44:06;23.70;49.50
2889;DHT22;1453;42.708;23.282;2024-03-06T11:46:47;22.70;50.70
2889;DHT22;1453;42.708;23.282;2024-03-06T11:49:17;23.30;49.60
2889;DHT22;1453;42.708;23.282;2024-03-06T11:51:46;23.40;49.10
2889;DHT22;1453;42.708;23.282;2024-03-06T11:54:14;22.60;49.40
2889;DHT22;1453;42.708;23.282;2024-03-06T11:56:41;22.40;50.10
2889;DHT22;1453;42.708;23.282;2024-03-06T11:59:09;22.80;50.50
2889;DHT22;1453;42.708;23.282;2024-03-06T12:01:44;23.90;50.10
2889;DHT22;1453;42.708;23.282;2024-03-06T12:04:10;25.00;50.00
2889;DHT22;1453;42.708;23.282;2024-03-06T12:06:39;25.30;48.20
2889;DHT22;1453;42.708;23.282;2024-03-06T12:09:05;24.20;47.50
2889;DHT22;1453;42.708;23.282;2024-03-06T12:11:36;23.60;48.60
2889;DHT22;1453;42.708;23.282;2024-03-06T12:14:03;23.90;49.10
2889;DHT22;1453;42.708;23.282;2024-03-06T12:16:29;22.90;47.40
2889;DHT22;1453;42.708;23.282;2024-03-06T12:18:56;22.40;48.30
2889;DHT22;1453;42.708;23.282;2024-03-06T12:21:31;22.20;49.60
2889;DHT22;1453;42.708;23.282;2024-03-06T12:24:10;22.10;49.30
2889;DHT22;1453;42.708;23.282;2024-03-06T12:26:36;21.60;48.80
2889;DHT22;1453;42.708;23.282;2024-03-06T12:29:10;20.80;50.00
2889;DHT22;1453;42.708;23.282;2024-03-06T12:31:38;20.70;50.40
2889;DHT22;1453;42.708;23.282;2024-03-06T12:34:07;21.30;50.60
2889;DHT22;1453;42.708;23.282;2024-03-06T12:36:34;21.20;49.30
2889;DHT22;1453;42.708;23.282;2024-03-06T12:39:04;20.50;52.60
2889;DHT22;1453;42.708;23.282;2024-03-06T12:41:39;19.30;55.10
2889;DHT22;1453;42.708;23.282;2024-03-06T12:44:06;18.00;57.90
2889;DHT22;1453;42.708;23.282;2024-03-06T12:46:35;17.00;60.00
2889;DHT22;1453;42.708;23.282;2024-03-06T12:49:01;16.40;62.30
2889;DHT22;1453;42.708;23.282;2024-03-06T12:51:27;16.20;63.90
2889;DHT22;1453;42.708;23.282;2024-03-06T12:53:53;16.40;64.90
2889;DHT22;1453;42.708;23.282;2024-03-06T12:56:19;17.00;64.20
2889;DHT22;1453;42.708;23.282;2024-03-06T12:58:45;18.20;60.70
2889;DHT22;1453;42.708;23.282;2024-03-06T13:01:11;19.40;59.20
2889;DHT22;1453;42.708;23.282;2024-03-06T13:03:37;19.70;57.70
2889;DHT22;1453;42.708;23.282;2024-03-06T13:06:04;20.30;56.70
2889;DHT22;1453;42.708;23.282;2024-03-06T13:08:31;20.70;56.30
2889;DHT22;1453;42.708;23.282;2024-03-06T13:10:57;21.10;56.50
2889;DHT22;1453;42.708;23.282;2024-03-06T13:13:24;20.40;56.10
2889;DHT22;1453;42.708;23.282;2024-03-06T13:15:51;20.70;56.40
2889;DHT22;1453;42.708;23.282;2024-03-06T13:18:18;20.10;55.90
2889;DHT22;1453;42.708;23.282;2024-03-06T13:20:44;19.30;56.00
2889;DHT22;1453;42.708;23.282;2024-03-06T13:23:10;19.20;57.60
2889;DHT22;1453;42.708;23.282;2024-03-06T13:25:37;19.90;56.80
2889;DHT22;1453;42.708;23.282;2024-03-06T13:28:03;20.70;56.70
2889;DHT22;1453;42.708;23.282;2024-03-06T13:30:30;20.40;55.80
2889;DHT22;1453;42.708;23.282;2024-03-06T13:32:57;20.10;56.10
2889;DHT22;1453;42.708;23.282;2024-03-06T13:35:24;20.70;55.60
2889;DHT22;1453;42.708;23.282;2024-03-06T13:37:50;20.70;56.00
2889;DHT22;1453;42.708;23.282;2024-03-06T13:40:16;21.00;55.90
2889;DHT22;1453;42.708;23.282;2024-03-06T13:42:43;21.50;55.10
2889;DHT22;1453;42.708;23.282;2024-03-06T13:45:09;20.20;55.10
2889;DHT22;1453;42.708;23.282;2024-03-06T13:47:40;19.60;56.20
2889;DHT22;1453;42.708;23.282;2024-03-06T13:50:12;18.90;56.80
2889;DHT22;1453;42.708;23.282;2024-03-06T13:52:39;17.90;58.50
2889;DHT22;1453;42.708;23.282;2024-03-06T13:55:06;17.70;59.60
2889;DHT22;1453;42.708;23.282;2024-03-06T13:57:34;17.20;60.90
2889;DHT22;1453;42.708;23.282;2024-03-06T14:00:09;16.70;61.10
2889;DHT22;1453;42.708;23.282;2024-03-06T14:02:43;16.60;62.80
2889;DHT22;1453;42.708;23.282;2024-03-06T14:05:11;16.30;63.50
2889;DHT22;1453;42.708;23.282;2024-03-06T14:07:38;16.00;64.60
2889;DHT22;1453;42.708;23.282;2024-03-06T14:10:06;15.30;66.10
2889;DHT22;1453;42.708;23.282;2024-03-06T14:12:34;15.20;68.70
2889;DHT22;1453;42.708;23.282;2024-03-06T14:15:05;15.20;68.80
2889;DHT22;1453;42.708;23.282;2024-03-06T14:17:34;15.10;69.00
2889;DHT22;1453;42.708;23.282;2024-03-06T14:20:00;15.20;70.10
2889;DHT22;1453;42.708;23.282;2024-03-06T14:22:26;15.30;68.70
2889;DHT22;1453;42.708;23.282;2024-03-06T14:24:53;15.20;68.40
2889;DHT22;1453;42.708;23.282;2024-03-06T14:27:18;14.90;68.90
2889;DHT22;1453;42.708;23.282;2024-03-06T14:29:44;14.10;69.50
2889;DHT22;1453;42.708;23.282;2024-03-06T14:32:10;14.00;71.70
2889;DHT22;1453;42.708;23.282;2024-03-06T14:34:36;14.20;72.60
2889;DHT22;1453;42.708;23.282;2024-03-06T14:37:02;14.30;73.80
2889;DHT22;1453;42.708;23.282;2024-03-06T14:39:29;13.80;76.20
2889;DHT22;1453;42.708;23.282;2024-03-06T14:41:55;13.60;76.00
2889;DHT22;1453;42.708;23.282;2024-03-06T14:44:21;12.90;84.40
2889;DHT22;1453;42.708;23.282;2024-03-06T14:46:47;12.30;93.30
2889;DHT22;1453;42.708;23.282;2024-03-06T14:49:13;11.50;99.90
2889;DHT22;1453;42.708;23.282;2024-03-06T14:51:41;11.40;99.90
2889;DHT22;1453;42.708;23.282;2024-03-06T14:54:07;11.00;99.90
2889;DHT22;1453;42.708;23.282;2024-03-06T14:56:33;10.60;99.90
2889;DHT22;1453;42.708;23.282;2024-03-06T14:58:59;10.40;99.90
2889;DHT22;1453;42.708;23.282;2024-03-06T15:01:25;10.30;99.90
2889;DHT22;1453;42.708;23.282;2024-03-06T15:03:52;10.20;99.90
2889;DHT22;1453;42.708;23.282;2024-03-06T15:06:19;10.30;99.90
2889;DHT22;1453;42.708;23.282;2024-03-06T15:08:45;10.20;99.90
2889;DHT22;1453;42.708;23.282;2024-03-06T15:11:11;10.10;99.90
2889;DHT22;1453;42.708;23.282;2024-03-06T15:13:38;10.10;99.90
2889;DHT22;1453;42.708;23.282;2024-03-06T15:16:04;10.00;99.90
2889;DHT22;1453;42.708;23.282;2024-03-06T15:18:30;10.00;99.90
2889;DHT22;1453;42.708;23.282;2024-03-06T15:20:57;10.10;99.90
2889;DHT22;1453;42.708;23.282;2024-03-06T15:23:23;10.00;99.90
2889;DHT22;1453;42.708;23.282;2024-03-06T15:25:51;10.00;99.90
2889;DHT22;1453;42.708;23.282;2024-03-06T15:28:18;10.10;99.90
2889;DHT22;1453;42.708;23.282;2024-03-06T15:30:44;10.00;99.90
2889;DHT22;1453;42.708;23.282;2024-03-06T15:33:09;9.90;99.90
2889;DHT22;1453;42.708;23.282;2024-03-06T15:35:35;10.00;99.90
2889;DHT22;1453;42.708;23.282;2024-03-06T15:38:01;9.90;99.90
2889;DHT22;1453;42.708;23.282;2024-03-06T15:40:28;10.10;99.90
2889;DHT22;1453;42.708;23.282;2024-03-06T15:42:53;10.10;99.90
2889;DHT22;1453;42.708;23.282;2024-03-06T15:45:19;10.20;99.90
2889;DHT22;1453;42.708;23.282;2024-03-06T15:47:49;10.40;99.90
2889;DHT22;1453;42.708;23.282;2024-03-06T15:50:15;10.50;99.90
2889;DHT22;1453;42.708;23.282;2024-03-06T15:52:41;10.80;99.90
2889;DHT22;1453;42.708;23.282;2024-03-06T15:55:08;11.00;99.90
2889;DHT22;1453;42.708;23.282;2024-03-06T15:57:35;11.20;99.90
2889;DHT22;1453;42.708;23.282;2024-03-06T16:00:08;11.30;99.90
2889;DHT22;1453;42.708;23.282;2024-03-06T16:02:39;11.40;99.90